sensor_id;sensor_type;location;lat;lon;timestamp;pressure;altitude;pressure_sealevel;temperature;humidity
77147;BME280;66121;52.584;9.694;2023-05-07T00:00:08;101677.84;;;9.38;88.76
77147;BME280;66121;52.584;9.694;2023-05-07T00:02:34;101675.28;;;9.45;89.35
77147;BME280;66121;52.584;9.694;2023-05-07T00:04:59;101674.59;;;9.48;89.63
77147;BME280;66121;52.584;9.694;2023-05-07T00:07:25;101674.19;;;9.34;89.34
77147;BME280;66121;52.584;9.694;2023-05-07T00:09:50;101683.09;;;9.43;88.89
77147;BME280;66121;52.584;9.694;2023-05-07T00:12:15;101678.84;;;9.46;89.45
77147;BME280;66121;52.584;9.694;2023-05-07T00:14:41;101673.41;;;9.34;88.99
77147;BME280;66121;52.584;9.694;2023-05-07T00:17:06;101675.53;;;9.40;89.25
77147;BME280;66121;52.584;9.694;2023-05-07T00:19:32;101685.31;;;9.38;89.39
77147;BME280;66121;52.584;9.694;2023-05-07T00:21:57;101685.22;;;9.34;89.74
77147;BME280;66121;52.584;9.694;2023-05-07T00:24:23;101686.03;;;9.35;89.57
77147;BME280;66121;52.584;9.694;2023-05-07T00:26:49;101681.41;;;9.39;89.77
77147;BME280;66121;52.584;9.694;2023-05-07T00:29:14;101678.03;;;9.45;89.02
77147;BME280;66121;52.584;9.694;2023-05-07T00:31:40;101680.97;;;9.37;89.67
77147;BME280;66121;52.584;9.694;2023-05-07T00:34:05;101680.97;;;9.37;89.89
77147;BME280;66121;52.584;9.694;2023-05-07T00:36:31;101672.97;;;9.47;89.05
77147;BME280;66121;52.584;9.694;2023-05-07T00:38:57;101678.84;;;9.46;89.49
77147;BME280;66121;52.584;9.694;2023-05-07T00:41:25;101670.75;;;9.37;89.57
77147;BME280;66121;52.584;9.694;2023-05-07T00:43:50;101671.53;;;9.38;90.16
77147;BME280;66121;52.584;9.694;2023-05-07T00:46:17;101660.31;;;9.31;90.41
77147;BME280;66121;52.584;9.694;2023-05-07T00:48:42;101661.38;;;9.26;89.89
77147;BME280;66121;52.584;9.694;2023-05-07T00:51:07;101655.75;;;9.23;89.81
77147;BME280;66121;52.584;9.694;2023-05-07T00:53:34;101658.19;;;9.24;89.73
77147;BME280;66121;52.584;9.694;2023-05-07T00:56:00;101661.63;;;9.21;89.52
77147;BME280;66121;52.584;9.694;2023-05-07T00:58:26;101659.56;;;9.18;89.96
77147;BME280;66121;52.584;9.694;2023-05-07T01:00:51;101665.44;;;9.17;90.07
77147;BME280;66121;52.584;9.694;2023-05-07T01:03:17;101662.31;;;9.18;89.61
77147;BME280;66121;52.584;9.694;2023-05-07T01:05:42;101655.22;;;9.17;90.10
77147;BME280;66121;52.584;9.694;2023-05-07T01:08:08;101657.72;;;9.22;90.09
77147;BME280;66121;52.584;9.694;2023-05-07T01:10:33;101658.75;;;9.18;90.73
77147;BME280;66121;52.584;9.694;2023-05-07T01:12:59;101651.91;;;9.12;89.53
77147;BME280;66121;52.584;9.694;2023-05-07T01:15:25;101647.66;;;9.14;90.00
77147;BME280;66121;52.584;9.694;2023-05-07T01:17:50;101655.56;;;9.16;89.89
77147;BME280;66121;52.584;9.694;2023-05-07T01:20:17;101647.41;;;9.19;90.18
77147;BME280;66121;52.584;9.694;2023-05-07T01:22:44;101655.81;;;9.11;90.11
77147;BME280;66121;52.584;9.694;2023-05-07T01:25:09;101656.38;;;9.16;89.88
77147;BME280;66121;52.584;9.694;2023-05-07T01:27:35;101658.50;;;9.23;89.88
77147;BME280;66121;52.584;9.694;2023-05-07T01:30:05;101659.44;;;9.27;89.24
77147;BME280;66121;52.584;9.694;2023-05-07T01:32:39;101657.00;;;9.25;89.60
77147;BME280;66121;52.584;9.694;2023-05-07T01:35:10;101672.50;;;9.30;89.40
77147;BME280;66121;52.584;9.694;2023-05-07T01:37:36;101654.16;;;9.22;89.17
77147;BME280;66121;52.584;9.694;2023-05-07T01:40:02;101657.00;;;9.25;89.45
77147;BME280;66121;52.584;9.694;2023-05-07T01:42:29;101662.06;;;9.23;89.22
77147;BME280;66121;52.584;9.694;2023-05-07T01:44:54;101653.97;;;9.15;89.88
77147;BME280;66121;52.584;9.694;2023-05-07T01:47:20;101654.25;;;9.25;89.94
77147;BME280;66121;52.584;9.694;2023-05-07T01:49:46;101652.84;;;9.31;89.00
77147;BME280;66121;52.584;9.694;2023-05-07T01:52:11;101666.53;;;9.28;90.03
77147;BME280;66121;52.584;9.694;2023-05-07T01:54:37;101659.22;;;9.20;90.17
77147;BME280;66121;52.584;9.694;2023-05-07T01:57:02;101659.44;;;9.27;90.05
77147;BME280;66121;52.584;9.694;2023-05-07T01:59:27;101656.13;;;9.21;90.25
77147;BME280;66121;52.584;9.694;2023-05-07T02:01:53;101664.56;;;9.28;90.16
77147;BME280;66121;52.584;9.694;2023-05-07T02:04:18;101666.63;;;9.31;89.72
77147;BME280;66121;52.584;9.694;2023-05-07T02:06:43;101663.19;;;9.34;89.65
77147;BME280;66121;52.584;9.694;2023-05-07T02:09:09;101665.13;;;9.34;89.11
77147;BME280;66121;52.584;9.694;2023-05-07T02:11:34;101663.19;;;9.34;89.48
77147;BME280;66121;52.584;9.694;2023-05-07T02:13:59;101672.03;;;9.28;89.46
77147;BME280;66121;52.584;9.694;2023-05-07T02:16:25;101666.88;;;9.26;89.25
77147;BME280;66121;52.584;9.694;2023-05-07T02:18:50;101678.25;;;9.25;89.15
77147;BME280;66121;52.584;9.694;2023-05-07T02:21:15;101668.38;;;9.24;89.05
77147;BME280;66121;52.584;9.694;2023-05-07T02:23:41;101669.03;;;9.33;89.44
77147;BME280;66121;52.584;9.694;2023-05-07T02:26:06;101672.75;;;9.25;89.10
77147;BME280;66121;52.584;9.694;2023-05-07T02:28:31;101675.75;;;9.20;89.10
77147;BME280;66121;52.584;9.694;2023-05-07T02:30:57;101671.03;;;9.20;89.36
77147;BME280;66121;52.584;9.694;2023-05-07T02:33:23;101666.38;;;9.08;89.64
77147;BME280;66121;52.584;9.694;2023-05-07T02:35:49;101675.44;;;9.09;89.81
77147;BME280;66121;52.584;9.694;2023-05-07T02:38:14;101668.31;;;9.08;89.14
77147;BME280;66121;52.584;9.694;2023-05-07T02:40:39;101674.63;;;9.08;89.79
77147;BME280;66121;52.584;9.694;2023-05-07T02:43:05;101675.63;;;9.16;89.81
77147;BME280;66121;52.584;9.694;2023-05-07T02:45:31;101680.13;;;9.08;89.52
77147;BME280;66121;52.584;9.694;2023-05-07T02:47:57;101678.75;;;9.15;89.37
77147;BME280;66121;52.584;9.694;2023-05-07T02:50:22;101677.03;;;9.10;89.82
77147;BME280;66121;52.584;9.694;2023-05-07T02:52:47;101676.69;;;9.12;89.85
77147;BME280;66121;52.584;9.694;2023-05-07T02:55:13;101674.03;;;9.15;89.87
77147;BME280;66121;52.584;9.694;2023-05-07T02:57:38;101672.22;;;9.07;89.39
77147;BME280;66121;52.584;9.694;2023-05-07T03:00:11;101673.00;;;9.07;89.95
77147;BME280;66121;52.584;9.694;2023-05-07T03:02:37;101671.88;;;9.08;90.29
77147;BME280;66121;52.584;9.694;2023-05-07T03:05:02;101672.06;;;9.16;90.07
77147;BME280;66121;52.584;9.694;2023-05-07T03:07:28;101673.94;;;9.12;90.04
77147;BME280;66121;52.584;9.694;2023-05-07T03:09:53;101678.75;;;9.15;89.96
77147;BME280;66121;52.584;9.694;2023-05-07T03:12:19;101668.75;;;9.10;89.88
77147;BME280;66121;52.584;9.694;2023-05-07T03:14:44;101681.75;;;9.10;89.67
77147;BME280;66121;52.584;9.694;2023-05-07T03:17:09;101677.03;;;9.10;90.28
77147;BME280;66121;52.584;9.694;2023-05-07T03:19:35;101652.59;;;9.08;89.63
77147;BME280;66121;52.584;9.694;2023-05-07T03:22:00;101664.97;;;9.15;89.27
77147;BME280;66121;52.584;9.694;2023-05-07T03:24:25;101659.56;;;9.18;89.74
77147;BME280;66121;52.584;9.694;2023-05-07T03:26:51;101667.00;;;9.30;89.54
77147;BME280;66121;52.584;9.694;2023-05-07T03:29:16;101661.50;;;9.30;88.81
77147;BME280;66121;52.584;9.694;2023-05-07T03:31:41;101666.94;;;9.14;89.16
77147;BME280;66121;52.584;9.694;2023-05-07T03:34:06;101645.59;;;9.11;88.86
77147;BME280;66121;52.584;9.694;2023-05-07T03:36:32;101658.34;;;9.03;88.56
77147;BME280;66121;52.584;9.694;2023-05-07T03:38:57;101652.34;;;9.14;89.11
77147;BME280;66121;52.584;9.694;2023-05-07T03:41:22;101663.81;;;9.16;87.95
77147;BME280;66121;52.584;9.694;2023-05-07T03:43:48;101660.31;;;9.03;88.73
77147;BME280;66121;52.584;9.694;2023-05-07T03:46:13;101666.25;;;9.05;88.95
77147;BME280;66121;52.584;9.694;2023-05-07T03:48:38;101666.13;;;9.14;89.10
77147;BME280;66121;52.584;9.694;2023-05-07T03:51:04;101670.41;;;8.99;88.71
77147;BME280;66121;52.584;9.694;2023-05-07T03:53:29;101683.25;;;8.95;88.55
77147;BME280;66121;52.584;9.694;2023-05-07T03:55:54;101677.06;;;8.98;89.54
77147;BME280;66121;52.584;9.694;2023-05-07T03:58:20;101680.75;;;9.02;89.40
77147;BME280;66121;52.584;9.694;2023-05-07T04:00:45;101675.56;;;9.00;89.07
77147;BME280;66121;52.584;9.694;2023-05-07T04:03:10;101663.84;;;9.03;89.16
77147;BME280;66121;52.584;9.694;2023-05-07T04:05:36;101664.47;;;8.97;88.52
77147;BME280;66121;52.584;9.694;2023-05-07T04:08:01;101675.13;;;8.98;88.70
77147;BME280;66121;52.584;9.694;2023-05-07T04:10:27;101670.41;;;8.99;88.80
77147;BME280;66121;52.584;9.694;2023-05-07T04:12:53;101674.75;;;9.12;88.59
77147;BME280;66121;52.584;9.694;2023-05-07T04:15:18;101673.25;;;9.15;88.99
77147;BME280;66121;52.584;9.694;2023-05-07T04:17:44;101680.53;;;9.23;88.24
77147;BME280;66121;52.584;9.694;2023-05-07T04:20:10;101685.41;;;9.14;88.28
77147;BME280;66121;52.584;9.694;2023-05-07T04:22:36;101694.91;;;9.16;89.03
77147;BME280;66121;52.584;9.694;2023-05-07T04:25:02;101693.53;;;9.10;88.87
77147;BME280;66121;52.584;9.694;2023-05-07T04:27:27;101697.00;;;9.07;88.48
77147;BME280;66121;52.584;9.694;2023-05-07T04:29:53;101692.53;;;9.15;88.55
77147;BME280;66121;52.584;9.694;2023-05-07T04:32:21;101693.78;;;9.05;89.42
77147;BME280;66121;52.584;9.694;2023-05-07T04:34:46;101700.22;;;9.09;88.93
77147;BME280;66121;52.584;9.694;2023-05-07T04:37:11;101689.28;;;9.13;89.04
77147;BME280;66121;52.584;9.694;2023-05-07T04:39:37;101705.50;;;9.02;89.29
77147;BME280;66121;52.584;9.694;2023-05-07T04:42:02;101692.56;;;8.90;89.82
77147;BME280;66121;52.584;9.694;2023-05-07T04:44:28;101701.50;;;8.99;89.50
77147;BME280;66121;52.584;9.694;2023-05-07T04:46:56;101701.94;;;9.01;89.45
77147;BME280;66121;52.584;9.694;2023-05-07T04:49:21;101710.00;;;8.94;89.56
77147;BME280;66121;52.584;9.694;2023-05-07T04:51:46;101719.38;;;9.05;90.41
77147;BME280;66121;52.584;9.694;2023-05-07T04:54:11;101721.91;;;8.98;89.93
77147;BME280;66121;52.584;9.694;2023-05-07T04:56:37;101716.41;;;8.98;89.74
77147;BME280;66121;52.584;9.694;2023-05-07T04:59:02;101724.19;;;9.08;89.56
77147;BME280;66121;52.584;9.694;2023-05-07T05:01:27;101719.72;;;9.04;89.21
77147;BME280;66121;52.584;9.694;2023-05-07T05:03:53;101722.94;;;9.06;90.72
77147;BME280;66121;52.584;9.694;2023-05-07T05:06:18;101729.13;;;9.03;90.17
77147;BME280;66121;52.584;9.694;2023-05-07T05:08:43;101726.25;;;9.12;90.44
77147;BME280;66121;52.584;9.694;2023-05-07T05:11:09;101731.41;;;9.13;89.63
77147;BME280;66121;52.584;9.694;2023-05-07T05:13:34;101732.19;;;9.14;89.73
77147;BME280;66121;52.584;9.694;2023-05-07T05:16:00;101731.06;;;9.15;88.99
77147;BME280;66121;52.584;9.694;2023-05-07T05:18:25;101736.09;;;9.13;89.17
77147;BME280;66121;52.584;9.694;2023-05-07T05:20:51;101735.16;;;9.21;89.16
77147;BME280;66121;52.584;9.694;2023-05-07T05:23:16;101737.81;;;9.05;89.43
77147;BME280;66121;52.584;9.694;2023-05-07T05:25:42;101731.31;;;9.10;88.69
77147;BME280;66121;52.584;9.694;2023-05-07T05:28:07;101738.31;;;9.07;88.86
77147;BME280;66121;52.584;9.694;2023-05-07T05:30:32;101732.81;;;9.07;89.53
77147;BME280;66121;52.584;9.694;2023-05-07T05:32:58;101754.03;;;9.06;88.78
77147;BME280;66121;52.584;9.694;2023-05-07T05:35:23;101744.94;;;9.18;89.83
77147;BME280;66121;52.584;9.694;2023-05-07T05:37:48;101737.91;;;9.21;88.54
77147;BME280;66121;52.584;9.694;2023-05-07T05:40:13;101737.91;;;9.21;86.84
77147;BME280;66121;52.584;9.694;2023-05-07T05:42:39;101736.41;;;9.23;87.69
77147;BME280;66121;52.584;9.694;2023-05-07T05:45:05;101741.09;;;9.35;87.00
77147;BME280;66121;52.584;9.694;2023-05-07T05:47:30;101746.19;;;9.21;85.97
77147;BME280;66121;52.584;9.694;2023-05-07T05:49:55;101748.03;;;9.17;84.62
77147;BME280;66121;52.584;9.694;2023-05-07T05:52:21;101754.69;;;9.16;85.68
77147;BME280;66121;52.584;9.694;2023-05-07T05:54:48;101754.56;;;9.24;85.96
77147;BME280;66121;52.584;9.694;2023-05-07T05:57:14;101749.91;;;9.40;84.76
77147;BME280;66121;52.584;9.694;2023-05-07T05:59:39;101755.03;;;9.54;84.74
77147;BME280;66121;52.584;9.694;2023-05-07T06:02:05;101750.66;;;9.53;84.21
77147;BME280;66121;52.584;9.694;2023-05-07T06:04:31;101745.41;;;9.48;83.25
77147;BME280;66121;52.584;9.694;2023-05-07T06:06:57;101754.84;;;9.47;83.36
77147;BME280;66121;52.584;9.694;2023-05-07T06:09:24;101740.50;;;9.41;82.92
77147;BME280;66121;52.584;9.694;2023-05-07T06:11:49;101744.81;;;9.54;84.20
77147;BME280;66121;52.584;9.694;2023-05-07T06:14:14;101747.97;;;9.41;83.37
77147;BME280;66121;52.584;9.694;2023-05-07T06:16:40;101751.84;;;9.52;83.01
77147;BME280;66121;52.584;9.694;2023-05-07T06:19:05;101746.59;;;9.62;83.79
77147;BME280;66121;52.584;9.694;2023-05-07T06:21:30;101756.75;;;9.58;82.83
77147;BME280;66121;52.584;9.694;2023-05-07T06:23:56;101751.13;;;9.83;82.80
77147;BME280;66121;52.584;9.694;2023-05-07T06:26:21;101761.38;;;9.82;82.54
77147;BME280;66121;52.584;9.694;2023-05-07T06:28:47;101751.91;;;9.83;82.03
77147;BME280;66121;52.584;9.694;2023-05-07T06:31:14;101751.03;;;9.95;82.13
77147;BME280;66121;52.584;9.694;2023-05-07T06:33:39;101755.31;;;9.92;81.64
77147;BME280;66121;52.584;9.694;2023-05-07T06:36:05;101748.97;;;9.76;81.83
77147;BME280;66121;52.584;9.694;2023-05-07T06:38:31;101759.31;;;9.95;82.15
77147;BME280;66121;52.584;9.694;2023-05-07T06:40:56;101752.84;;;10.03;81.32
77147;BME280;66121;52.584;9.694;2023-05-07T06:43:22;101759.16;;;10.03;81.48
77147;BME280;66121;52.584;9.694;2023-05-07T06:45:47;101754.09;;;10.05;81.70
77147;BME280;66121;52.584;9.694;2023-05-07T06:48:12;101757.06;;;10.12;81.12
77147;BME280;66121;52.584;9.694;2023-05-07T06:50:38;101751.25;;;10.29;81.43
77147;BME280;66121;52.584;9.694;2023-05-07T06:53:03;101741.97;;;10.38;81.69
77147;BME280;66121;52.584;9.694;2023-05-07T06:55:28;101748.66;;;10.37;80.13
77147;BME280;66121;52.584;9.694;2023-05-07T06:57:54;101750.25;;;10.38;80.65
77147;BME280;66121;52.584;9.694;2023-05-07T07:00:19;101754.78;;;10.46;81.14
77147;BME280;66121;52.584;9.694;2023-05-07T07:02:45;101763.59;;;10.51;80.46
77147;BME280;66121;52.584;9.694;2023-05-07T07:05:10;101754.78;;;10.46;79.75
77147;BME280;66121;52.584;9.694;2023-05-07T07:07:35;101756.38;;;10.62;79.40
77147;BME280;66121;52.584;9.694;2023-05-07T07:10:01;101764.84;;;10.38;78.40
77147;BME280;66121;52.584;9.694;2023-05-07T07:12:27;101756.84;;;10.49;77.94
77147;BME280;66121;52.584;9.694;2023-05-07T07:14:53;101758.63;;;10.41;78.42
77147;BME280;66121;52.584;9.694;2023-05-07T07:17:19;101765.94;;;10.49;78.27
77147;BME280;66121;52.584;9.694;2023-05-07T07:19:44;101763.41;;;10.60;78.69
77147;BME280;66121;52.584;9.694;2023-05-07T07:22:09;101773.19;;;10.57;77.95
77147;BME280;66121;52.584;9.694;2023-05-07T07:24:35;101775.44;;;10.52;77.79
77147;BME280;66121;52.584;9.694;2023-05-07T07:27:00;101778.75;;;10.42;78.07
77147;BME280;66121;52.584;9.694;2023-05-07T07:29:25;101783.38;;;10.53;79.03
77147;BME280;66121;52.584;9.694;2023-05-07T07:31:51;101785.59;;;10.63;78.08
77147;BME280;66121;52.584;9.694;2023-05-07T07:34:17;101782.84;;;10.63;77.91
77147;BME280;66121;52.584;9.694;2023-05-07T07:36:42;101781.03;;;10.71;76.85
77147;BME280;66121;52.584;9.694;2023-05-07T07:39:07;101786.72;;;10.93;77.60
77147;BME280;66121;52.584;9.694;2023-05-07T07:41:33;101790.63;;;10.92;76.45
77147;BME280;66121;52.584;9.694;2023-05-07T07:43:58;101781.47;;;11.04;78.40
77147;BME280;66121;52.584;9.694;2023-05-07T07:46:24;101790.44;;;11.17;77.27
77147;BME280;66121;52.584;9.694;2023-05-07T07:48:49;101785.06;;;11.24;77.48
77147;BME280;66121;52.584;9.694;2023-05-07T07:51:14;101786.44;;;11.14;76.28
77147;BME280;66121;52.584;9.694;2023-05-07T07:53:40;101792.97;;;11.25;76.86
77147;BME280;66121;52.584;9.694;2023-05-07T07:56:06;101790.59;;;11.24;76.33
77147;BME280;66121;52.584;9.694;2023-05-07T07:58:31;101792.28;;;11.13;76.74
77147;BME280;66121;52.584;9.694;2023-05-07T08:00:57;101781.56;;;11.27;75.54
77147;BME280;66121;52.584;9.694;2023-05-07T08:03:22;101787.66;;;11.17;76.07
77147;BME280;66121;52.584;9.694;2023-05-07T08:05:47;101786.34;;;10.95;75.46
77147;BME280;66121;52.584;9.694;2023-05-07T08:08:14;101786.44;;;11.14;76.44
77147;BME280;66121;52.584;9.694;2023-05-07T08:10:40;101791.59;;;11.35;75.65
77147;BME280;66121;52.584;9.694;2023-05-07T08:13:05;101793.81;;;11.10;75.50
77147;BME280;66121;52.584;9.694;2023-05-07T08:15:31;101788.69;;;11.28;74.61
77147;BME280;66121;52.584;9.694;2023-05-07T08:17:57;101790.72;;;11.12;75.97
77147;BME280;66121;52.584;9.694;2023-05-07T08:20:23;101792.41;;;11.54;76.51
77147;BME280;66121;52.584;9.694;2023-05-07T08:22:48;101784.66;;;11.60;76.25
77147;BME280;66121;52.584;9.694;2023-05-07T08:25:13;101784.66;;;11.79;75.18
77147;BME280;66121;52.584;9.694;2023-05-07T08:27:39;101795.50;;;12.07;74.10
77147;BME280;66121;52.584;9.694;2023-05-07T08:30:04;101793.28;;;11.93;72.92
77147;BME280;66121;52.584;9.694;2023-05-07T08:32:30;101804.38;;;12.16;73.74
77147;BME280;66121;52.584;9.694;2023-05-07T08:34:55;101797.94;;;11.70;72.67
77147;BME280;66121;52.584;9.694;2023-05-07T08:37:20;101797.63;;;11.94;73.56
77147;BME280;66121;52.584;9.694;2023-05-07T08:39:46;101799.59;;;11.94;72.61
77147;BME280;66121;52.584;9.694;2023-05-07T08:42:12;101807.72;;;11.68;73.35
77147;BME280;66121;52.584;9.694;2023-05-07T08:44:40;101814.25;;;11.59;74.11
77147;BME280;66121;52.584;9.694;2023-05-07T08:47:08;101818.63;;;11.60;73.79
77147;BME280;66121;52.584;9.694;2023-05-07T08:49:34;101813.28;;;11.33;74.41
77147;BME280;66121;52.584;9.694;2023-05-07T08:52:00;101807.84;;;11.55;75.21
77147;BME280;66121;52.584;9.694;2023-05-07T08:54:27;101808.72;;;11.59;73.50
77147;BME280;66121;52.584;9.694;2023-05-07T08:56:52;101803.00;;;11.87;73.63
77147;BME280;66121;52.584;9.694;2023-05-07T08:59:18;101816.25;;;12.16;73.26
77147;BME280;66121;52.584;9.694;2023-05-07T09:01:43;101808.84;;;12.01;73.63
77147;BME280;66121;52.584;9.694;2023-05-07T09:04:08;101817.94;;;11.83;73.01
77147;BME280;66121;52.584;9.694;2023-05-07T09:06:34;101818.88;;;12.09;72.53
77147;BME280;66121;52.584;9.694;2023-05-07T09:09:00;101818.97;;;11.94;nan
77147;BME280;66121;52.584;9.694;2023-05-07T09:11:26;101825.22;;;11.72;73.07
77147;BME280;66121;52.584;9.694;2023-05-07T09:13:56;101817.19;;;11.67;73.55
77147;BME280;66121;52.584;9.694;2023-05-07T09:16:22;101828.72;;;11.53;73.21
77147;BME280;66121;52.584;9.694;2023-05-07T09:18:50;101823.34;;;11.41;74.55
77147;BME280;66121;52.584;9.694;2023-05-07T09:21:17;101831.66;;;11.60;73.63
77147;BME280;66121;52.584;9.694;2023-05-07T09:23:43;101833.16;;;11.57;73.83
77147;BME280;66121;52.584;9.694;2023-05-07T09:26:08;101813.59;;;11.47;74.37
77147;BME280;66121;52.584;9.694;2023-05-07T09:28:43;101828.00;;;11.72;74.19
77147;BME280;66121;52.584;9.694;2023-05-07T09:31:09;101815.00;;;11.56;73.77
77147;BME280;66121;52.584;9.694;2023-05-07T09:33:35;101821.88;;;11.47;74.78
77147;BME280;66121;52.584;9.694;2023-05-07T09:36:08;101828.81;;;11.56;74.89
77147;BME280;66121;52.584;9.694;2023-05-07T09:38:34;101832.38;;;11.57;75.00
77147;BME280;66121;52.584;9.694;2023-05-07T09:41:11;101827.38;;;11.82;74.68
77147;BME280;66121;52.584;9.694;2023-05-07T09:43:38;101812.69;;;11.97;74.33
77147;BME280;66121;52.584;9.694;2023-05-07T09:46:16;101818.88;;;11.90;73.25
77147;BME280;66121;52.584;9.694;2023-05-07T09:48:43;101823.75;;;11.97;73.65
77147;BME280;66121;52.584;9.694;2023-05-07T09:51:24;101807.63;;;11.99;73.37
77147;BME280;66121;52.584;9.694;2023-05-07T09:53:52;101819.19;;;12.27;74.80
77147;BME280;66121;52.584;9.694;2023-05-07T09:56:18;101817.63;;;12.71;72.70
77147;BME280;66121;52.584;9.694;2023-05-07T09:58:45;101823.44;;;12.89;71.59
77147;BME280;66121;52.584;9.694;2023-05-07T10:01:12;101821.22;;;13.21;71.83
77147;BME280;66121;52.584;9.694;2023-05-07T10:03:40;101830.28;;;13.18;69.39
77147;BME280;66121;52.584;9.694;2023-05-07T10:06:08;101842.50;;;13.13;71.84
77147;BME280;66121;52.584;9.694;2023-05-07T10:08:34;101834.38;;;13.27;71.35
77147;BME280;66121;52.584;9.694;2023-05-07T10:11:01;101836.06;;;12.86;70.92
77147;BME280;66121;52.584;9.694;2023-05-07T10:13:26;101835.22;;;13.05;69.77
77147;BME280;66121;52.584;9.694;2023-05-07T10:15:52;101831.53;;;12.98;69.44
77147;BME280;66121;52.584;9.694;2023-05-07T10:18:19;101829.91;;;12.97;68.59
77147;BME280;66121;52.584;9.694;2023-05-07T10:20:48;101833.97;;;13.25;70.52
77147;BME280;66121;52.584;9.694;2023-05-07T10:23:19;101832.28;;;13.47;71.09
77147;BME280;66121;52.584;9.694;2023-05-07T10:25:47;101827.06;;;13.42;69.13
77147;BME280;66121;52.584;9.694;2023-05-07T10:28:13;101832.25;;;13.43;67.99
77147;BME280;66121;52.584;9.694;2023-05-07T10:31:29;101833.75;;;13.67;68.97
77147;BME280;66121;52.584;9.694;2023-05-07T10:33:34;101831.97;;;13.52;69.15
77147;BME280;66121;52.584;9.694;2023-05-07T10:36:01;101831.59;;;13.53;68.44
77147;BME280;66121;52.584;9.694;2023-05-07T10:38:29;101834.81;;;13.55;68.79
77147;BME280;66121;52.584;9.694;2023-05-07T10:40:55;101837.66;;;13.33;68.32
77147;BME280;66121;52.584;9.694;2023-05-07T10:43:20;101845.50;;;13.57;67.42
77147;BME280;66121;52.584;9.694;2023-05-07T10:46:11;101836.78;;;13.55;67.40
77147;BME280;66121;52.584;9.694;2023-05-07T10:51:34;101834.41;;;14.53;65.17
77147;BME280;66121;52.584;9.694;2023-05-07T10:56:34;101831.69;;;13.90;65.91
77147;BME280;66121;52.584;9.694;2023-05-07T11:02:02;101844.97;;;14.07;65.57
77147;BME280;66121;52.584;9.694;2023-05-07T11:04:29;101840.28;;;13.82;65.65
77147;BME280;66121;52.584;9.694;2023-05-07T11:07:26;101843.25;;;13.66;66.92
77147;BME280;66121;52.584;9.694;2023-05-07T11:15:09;101850.22;;;14.16;65.50
77147;BME280;66121;52.584;9.694;2023-05-07T11:17:52;101831.09;;;14.07;64.32
77147;BME280;66121;52.584;9.694;2023-05-07T11:20:18;101835.19;;;14.54;66.98
77147;BME280;66121;52.584;9.694;2023-05-07T11:22:43;101821.28;;;14.50;64.92
77147;BME280;66121;52.584;9.694;2023-05-07T11:25:09;101830.38;;;14.14;63.83
77147;BME280;66121;52.584;9.694;2023-05-07T11:27:34;101822.56;;;14.27;65.11
77147;BME280;66121;52.584;9.694;2023-05-07T11:29:59;101825.09;;;14.75;65.27
77147;BME280;66121;52.584;9.694;2023-05-07T11:32:29;101821.03;;;14.69;64.96
77147;BME280;66121;52.584;9.694;2023-05-07T11:34:55;101817.97;;;14.04;65.02
77147;BME280;66121;52.584;9.694;2023-05-07T11:37:21;101818.72;;;14.01;65.41
77147;BME280;66121;52.584;9.694;2023-05-07T11:39:47;101824.13;;;14.20;65.72
77147;BME280;66121;52.584;9.694;2023-05-07T11:42:38;101829.44;;;14.73;64.71
77147;BME280;66121;52.584;9.694;2023-05-07T11:45:04;101828.41;;;14.95;64.38
77147;BME280;66121;52.584;9.694;2023-05-07T11:47:30;101831.91;;;14.85;64.57
77147;BME280;66121;52.584;9.694;2023-05-07T11:49:56;101826.72;;;14.83;64.24
77147;BME280;66121;52.584;9.694;2023-05-07T11:52:23;101833.38;;;14.32;64.52
77147;BME280;66121;52.584;9.694;2023-05-07T11:54:52;101836.03;;;14.25;64.75
77147;BME280;66121;52.584;9.694;2023-05-07T11:57:18;101831.56;;;14.90;65.10
77147;BME280;66121;52.584;9.694;2023-05-07T11:59:43;101823.81;;;14.69;64.68
77147;BME280;66121;52.584;9.694;2023-05-07T12:02:15;101834.47;;;14.64;63.97
77147;BME280;66121;52.584;9.694;2023-05-07T12:04:41;101830.13;;;14.66;65.53
77147;BME280;66121;52.584;9.694;2023-05-07T12:07:13;101831.47;;;14.39;65.01
77147;BME280;66121;52.584;9.694;2023-05-07T12:09:40;101840.38;;;14.22;65.38
77147;BME280;66121;52.584;9.694;2023-05-07T12:12:05;101840.50;;;13.99;66.92
77147;BME280;66121;52.584;9.694;2023-05-07T12:14:31;101824.16;;;13.91;66.21
77147;BME280;66121;52.584;9.694;2023-05-07T12:16:58;101822.09;;;14.21;66.16
77147;BME280;66121;52.584;9.694;2023-05-07T12:19:28;101838.28;;;14.45;65.01
77147;BME280;66121;52.584;9.694;2023-05-07T12:21:53;101834.66;;;14.81;65.65
77147;BME280;66121;52.584;9.694;2023-05-07T12:24:18;101832.50;;;14.64;64.15
77147;BME280;66121;52.584;9.694;2023-05-07T12:26:44;101839.84;;;14.83;65.95
77147;BME280;66121;52.584;9.694;2023-05-07T12:29:10;101836.91;;;14.65;62.85
77147;BME280;66121;52.584;9.694;2023-05-07T12:31:35;101839.56;;;14.55;62.76
77147;BME280;66121;52.584;9.694;2023-05-07T12:34:00;101840.72;;;14.54;63.98
77147;BME280;66121;52.584;9.694;2023-05-07T12:36:26;101835.13;;;14.47;64.66
77147;BME280;66121;52.584;9.694;2023-05-07T12:38:51;101838.31;;;14.49;64.69
77147;BME280;66121;52.584;9.694;2023-05-07T12:41:19;101826.50;;;14.22;64.71
77147;BME280;66121;52.584;9.694;2023-05-07T12:43:56;101835.34;;;14.31;64.63
77147;BME280;66121;52.584;9.694;2023-05-07T12:46:21;101839.69;;;14.69;65.23
77147;BME280;66121;52.584;9.694;2023-05-07T12:48:48;101834.88;;;14.62;63.91
77147;BME280;66121;52.584;9.694;2023-05-07T12:51:13;101832.44;;;14.57;64.09
77147;BME280;66121;52.584;9.694;2023-05-07T12:53:40;101840.44;;;14.66;65.22
77147;BME280;66121;52.584;9.694;2023-05-07T12:56:09;101838.75;;;14.51;63.52
77147;BME280;66121;52.584;9.694;2023-05-07T12:58:35;101837.75;;;14.73;62.78
77147;BME280;66121;52.584;9.694;2023-05-07T13:01:07;101838.38;;;15.00;64.59
77147;BME280;66121;52.584;9.694;2023-05-07T13:03:36;101834.38;;;14.97;63.39